sensor_id;sensor_type;location;lat;lon;timestamp;temperature;humidity
28010;DHT22;15334;49.494;8.410;2023-05-16T00:01:16;13.60;99.90
28010;DHT22;15334;49.494;8.410;2023-05-16T00:03:45;13.60;99.90
28010;DHT22;15334;49.494;8.410;2023-05-16T00:06:13;13.60;99.90
28010;DHT22;15334;49.494;8.410;2023-05-16T00:08:42;13.50;99.90
28010;DHT22;15334;49.494;8.410;2023-05-16T00:11:10;13.40;99.90
28010;DHT22;15334;49.494;8.410;2023-05-16T00:13:38;13.40;99.90
28010;DHT22;15334;49.494;8.410;2023-05-16T00:16:08;13.30;99.90
28010;DHT22;15334;49.494;8.410;2023-05-16T00:18:37;13.20;99.90
28010;DHT22;15334;49.494;8.410;2023-05-16T00:21:05;13.20;99.90
28010;DHT22;15334;49.494;8.410;2023-05-16T00:23:33;13.20;99.90
28010;DHT22;15334;49.494;8.410;2023-05-16T00:26:02;13.10;99.90
28010;DHT22;15334;49.494;8.410;2023-05-16T00:28:30;13.20;99.90
28010;DHT22;15334;49.494;8.410;2023-05-16T00:30:59;13.20;99.90
28010;DHT22;15334;49.494;8.410;2023-05-16T00:33:27;13.20;99.90
28010;DHT22;15334;49.494;8.410;2023-05-16T00:35:54;13.20;99.90
28010;DHT22;15334;49.494;8.410;2023-05-16T00:38:24;13.10;99.90
28010;DHT22;15334;49.494;8.410;2023-05-16T00:40:52;13.10;99.90
28010;DHT22;15334;49.494;8.410;2023-05-16T00:43:21;13.10;99.90
28010;DHT22;15334;49.494;8.410;2023-05-16T00:45:49;13.10;99.90
28010;DHT22;15334;49.494;8.410;2023-05-16T00:48:17;13.10;99.90
28010;DHT22;15334;49.494;8.410;2023-05-16T00:50:46;13.10;99.90
28010;DHT22;15334;49.494;8.410;2023-05-16T00:53:15;13.10;99.90
28010;DHT22;15334;49.494;8.410;2023-05-16T00:55:43;13.00;99.90
28010;DHT22;15334;49.494;8.410;2023-05-16T00:58:12;13.00;99.90
28010;DHT22;15334;49.494;8.410;2023-05-16T01:00:42;13.00;99.90
28010;DHT22;15334;49.494;8.410;2023-05-16T01:03:14;13.00;99.90
28010;DHT22;15334;49.494;8.410;2023-05-16T01:05:43;13.00;99.90
28010;DHT22;15334;49.494;8.410;2023-05-16T01:08:11;12.90;99.90
28010;DHT22;15334;49.494;8.410;2023-05-16T01:10:45;12.90;99.90
28010;DHT22;15334;49.494;8.410;2023-05-16T01:13:21;12.90;99.90
28010;DHT22;15334;49.494;8.410;2023-05-16T01:15:59;12.90;99.90
28010;DHT22;15334;49.494;8.410;2023-05-16T01:18:38;12.90;99.90
28010;DHT22;15334;49.494;8.410;2023-05-16T01:21:12;13.00;99.90
28010;DHT22;15334;49.494;8.410;2023-05-16T01:23:50;13.00;99.90
28010;DHT22;15334;49.494;8.410;2023-05-16T01:26:21;13.00;99.90
28010;DHT22;15334;49.494;8.410;2023-05-16T01:28:51;12.90;99.90
28010;DHT22;15334;49.494;8.410;2023-05-16T01:31:20;12.90;99.90
28010;DHT22;15334;49.494;8.410;2023-05-16T01:33:48;12.90;99.90
28010;DHT22;15334;49.494;8.410;2023-05-16T01:36:23;12.90;99.90
28010;DHT22;15334;49.494;8.410;2023-05-16T01:39:00;12.80;99.90
28010;DHT22;15334;49.494;8.410;2023-05-16T01:41:38;12.80;99.90
28010;DHT22;15334;49.494;8.410;2023-05-16T01:44:15;12.80;99.90
28010;DHT22;15334;49.494;8.410;2023-05-16T01:46:45;12.80;99.90
28010;DHT22;15334;49.494;8.410;2023-05-16T01:49:16;12.90;99.90
28010;DHT22;15334;49.494;8.410;2023-05-16T01:51:51;12.80;99.90
28010;DHT22;15334;49.494;8.410;2023-05-16T01:54:24;12.80;99.90
28010;DHT22;15334;49.494;8.410;2023-05-16T01:56:55;12.80;99.90
28010;DHT22;15334;49.494;8.410;2023-05-16T01:59:23;12.70;99.90
28010;DHT22;15334;49.494;8.410;2023-05-16T02:01:52;12.70;99.90
28010;DHT22;15334;49.494;8.410;2023-05-16T02:04:21;12.60;99.90
28010;DHT22;15334;49.494;8.410;2023-05-16T02:06:51;12.60;99.90
28010;DHT22;15334;49.494;8.410;2023-05-16T02:09:19;12.50;99.90
28010;DHT22;15334;49.494;8.410;2023-05-16T02:11:47;12.50;99.90
28010;DHT22;15334;49.494;8.410;2023-05-16T02:14:16;12.40;99.90
28010;DHT22;15334;49.494;8.410;2023-05-16T02:16:44;12.40;99.90
28010;DHT22;15334;49.494;8.410;2023-05-16T02:19:12;12.40;99.90
28010;DHT22;15334;49.494;8.410;2023-05-16T02:21:40;12.30;99.90
28010;DHT22;15334;49.494;8.410;2023-05-16T02:24:08;12.30;99.90
28010;DHT22;15334;49.494;8.410;2023-05-16T02:26:36;12.30;99.90
28010;DHT22;15334;49.494;8.410;2023-05-16T02:29:04;12.30;99.90
28010;DHT22;15334;49.494;8.410;2023-05-16T02:31:34;12.30;99.90
28010;DHT22;15334;49.494;8.410;2023-05-16T02:34:02;12.20;99.90
28010;DHT22;15334;49.494;8.410;2023-05-16T02:36:30;12.20;99.90
28010;DHT22;15334;49.494;8.410;2023-05-16T02:39:00;12.20;99.90
28010;DHT22;15334;49.494;8.410;2023-05-16T02:41:28;12.10;99.90
28010;DHT22;15334;49.494;8.410;2023-05-16T02:43:55;12.00;99.90
28010;DHT22;15334;49.494;8.410;2023-05-16T02:46:25;12.00;99.90
28010;DHT22;15334;49.494;8.410;2023-05-16T02:48:55;12.00;99.90
28010;DHT22;15334;49.494;8.410;2023-05-16T02:51:24;12.00;99.90
28010;DHT22;15334;49.494;8.410;2023-05-16T02:53:53;12.00;99.90
28010;DHT22;15334;49.494;8.410;2023-05-16T02:56:22;11.90;99.90
28010;DHT22;15334;49.494;8.410;2023-05-16T02:58:52;11.90;99.90
28010;DHT22;15334;49.494;8.410;2023-05-16T03:01:21;11.90;99.90
28010;DHT22;15334;49.494;8.410;2023-05-16T03:03:49;11.80;99.90
28010;DHT22;15334;49.494;8.410;2023-05-16T03:06:19;11.80;99.90
28010;DHT22;15334;49.494;8.410;2023-05-16T03:08:47;11.70;99.90
28010;DHT22;15334;49.494;8.410;2023-05-16T03:11:16;11.70;99.90
28010;DHT22;15334;49.494;8.410;2023-05-16T03:13:46;11.70;99.90
28010;DHT22;15334;49.494;8.410;2023-05-16T03:16:14;11.70;99.90
28010;DHT22;15334;49.494;8.410;2023-05-16T03:18:42;11.70;99.90
28010;DHT22;15334;49.494;8.410;2023-05-16T03:21:10;11.70;99.90
28010;DHT22;15334;49.494;8.410;2023-05-16T03:23:40;11.70;99.90
28010;DHT22;15334;49.494;8.410;2023-05-16T03:26:08;11.70;99.90
28010;DHT22;15334;49.494;8.410;2023-05-16T03:28:37;11.60;99.90
28010;DHT22;15334;49.494;8.410;2023-05-16T03:31:05;11.70;99.90
28010;DHT22;15334;49.494;8.410;2023-05-16T03:33:33;11.70;99.90
28010;DHT22;15334;49.494;8.410;2023-05-16T03:36:01;11.70;99.90
28010;DHT22;15334;49.494;8.410;2023-05-16T03:38:29;11.70;99.90
28010;DHT22;15334;49.494;8.410;2023-05-16T03:40:59;11.60;99.90
28010;DHT22;15334;49.494;8.410;2023-05-16T03:43:27;11.60;99.90
28010;DHT22;15334;49.494;8.410;2023-05-16T03:45:55;11.60;99.90
28010;DHT22;15334;49.494;8.410;2023-05-16T03:48:23;11.60;99.90
28010;DHT22;15334;49.494;8.410;2023-05-16T03:50:52;11.60;99.90
28010;DHT22;15334;49.494;8.410;2023-05-16T03:53:20;11.60;99.90
28010;DHT22;15334;49.494;8.410;2023-05-16T03:55:48;11.60;99.90
28010;DHT22;15334;49.494;8.410;2023-05-16T03:58:17;11.50;99.90
28010;DHT22;15334;49.494;8.410;2023-05-16T04:00:45;11.50;99.90
28010;DHT22;15334;49.494;8.410;2023-05-16T04:03:14;11.60;99.90
28010;DHT22;15334;49.494;8.410;2023-05-16T04:05:42;11.60;99.90
28010;DHT22;15334;49.494;8.410;2023-05-16T04:08:11;11.60;99.90
28010;DHT22;15334;49.494;8.410;2023-05-16T04:10:39;11.60;99.90
28010;DHT22;15334;49.494;8.410;2023-05-16T04:13:07;11.60;99.90
28010;DHT22;15334;49.494;8.410;2023-05-16T04:15:37;11.60;99.90
28010;DHT22;15334;49.494;8.410;2023-05-16T04:18:05;11.60;99.90
28010;DHT22;15334;49.494;8.410;2023-05-16T04:20:33;11.60;99.90
28010;DHT22;15334;49.494;8.410;2023-05-16T04:23:02;11.60;99.90
28010;DHT22;15334;49.494;8.410;2023-05-16T04:25:30;11.70;99.90
28010;DHT22;15334;49.494;8.410;2023-05-16T04:27:58;11.70;99.90
28010;DHT22;15334;49.494;8.410;2023-05-16T04:30:27;11.70;99.90
28010;DHT22;15334;49.494;8.410;2023-05-16T04:32:56;11.70;99.90
28010;DHT22;15334;49.494;8.410;2023-05-16T04:35:26;11.80;99.90
28010;DHT22;15334;49.494;8.410;2023-05-16T04:37:54;11.80;99.90
28010;DHT22;15334;49.494;8.410;2023-05-16T04:40:22;11.90;99.90
28010;DHT22;15334;49.494;8.410;2023-05-16T04:42:51;11.90;99.90
28010;DHT22;15334;49.494;8.410;2023-05-16T04:45:20;11.90;99.90
28010;DHT22;15334;49.494;8.410;2023-05-16T04:47:48;11.90;99.90
28010;DHT22;15334;49.494;8.410;2023-05-16T04:50:19;12.00;99.90
28010;DHT22;15334;49.494;8.410;2023-05-16T04:52:47;12.00;99.90
28010;DHT22;15334;49.494;8.410;2023-05-16T04:55:15;12.10;99.90
28010;DHT22;15334;49.494;8.410;2023-05-16T04:57:43;12.10;99.90
28010;DHT22;15334;49.494;8.410;2023-05-16T05:00:13;12.10;99.90
28010;DHT22;15334;49.494;8.410;2023-05-16T05:02:42;12.10;99.90
28010;DHT22;15334;49.494;8.410;2023-05-16T05:05:10;12.10;99.90
28010;DHT22;15334;49.494;8.410;2023-05-16T05:07:40;12.10;99.90
28010;DHT22;15334;49.494;8.410;2023-05-16T05:10:09;12.10;99.90
28010;DHT22;15334;49.494;8.410;2023-05-16T05:12:37;12.00;99.90
28010;DHT22;15334;49.494;8.410;2023-05-16T05:15:06;12.10;99.90
28010;DHT22;15334;49.494;8.410;2023-05-16T05:17:34;12.20;99.90
28010;DHT22;15334;49.494;8.410;2023-05-16T05:20:04;12.20;99.90
28010;DHT22;15334;49.494;8.410;2023-05-16T05:22:37;12.30;99.90
28010;DHT22;15334;49.494;8.410;2023-05-16T05:25:17;12.40;99.90
28010;DHT22;15334;49.494;8.410;2023-05-16T05:27:45;12.40;99.90
28010;DHT22;15334;49.494;8.410;2023-05-16T05:30:13;12.50;99.90
28010;DHT22;15334;49.494;8.410;2023-05-16T05:32:41;12.60;99.90
28010;DHT22;15334;49.494;8.410;2023-05-16T05:35:10;12.60;99.90
28010;DHT22;15334;49.494;8.410;2023-05-16T05:37:37;12.60;99.90
28010;DHT22;15334;49.494;8.410;2023-05-16T05:40:07;12.70;99.90
28010;DHT22;15334;49.494;8.410;2023-05-16T05:42:36;12.70;99.90
28010;DHT22;15334;49.494;8.410;2023-05-16T05:45:05;12.70;99.90
28010;DHT22;15334;49.494;8.410;2023-05-16T05:47:33;12.80;99.90
28010;DHT22;15334;49.494;8.410;2023-05-16T05:50:02;12.90;99.90
28010;DHT22;15334;49.494;8.410;2023-05-16T05:52:30;12.90;99.90
28010;DHT22;15334;49.494;8.410;2023-05-16T05:54:58;12.90;99.90
28010;DHT22;15334;49.494;8.410;2023-05-16T05:57:26;12.90;99.90
28010;DHT22;15334;49.494;8.410;2023-05-16T05:59:55;12.80;99.90
28010;DHT22;15334;49.494;8.410;2023-05-16T06:02:23;12.80;99.90
28010;DHT22;15334;49.494;8.410;2023-05-16T06:04:51;12.80;99.90
28010;DHT22;15334;49.494;8.410;2023-05-16T06:07:19;12.80;99.90
28010;DHT22;15334;49.494;8.410;2023-05-16T06:09:47;12.70;99.90
28010;DHT22;15334;49.494;8.410;2023-05-16T06:12:15;12.80;99.90
28010;DHT22;15334;49.494;8.410;2023-05-16T06:14:43;12.80;99.90
28010;DHT22;15334;49.494;8.410;2023-05-16T06:17:12;12.90;99.90
28010;DHT22;15334;49.494;8.410;2023-05-16T06:19:40;12.90;99.90
28010;DHT22;15334;49.494;8.410;2023-05-16T06:22:08;12.90;99.90
28010;DHT22;15334;49.494;8.410;2023-05-16T06:24:36;12.90;99.90
28010;DHT22;15334;49.494;8.410;2023-05-16T06:27:05;12.90;99.90
28010;DHT22;15334;49.494;8.410;2023-05-16T06:29:33;13.00;99.90
28010;DHT22;15334;49.494;8.410;2023-05-16T06:32:01;13.00;99.90
28010;DHT22;15334;49.494;8.410;2023-05-16T06:34:30;13.00;99.90
28010;DHT22;15334;49.494;8.410;2023-05-16T06:36:58;13.10;99.90
28010;DHT22;15334;49.494;8.410;2023-05-16T06:39:28;13.20;99.90
28010;DHT22;15334;49.494;8.410;2023-05-16T06:41:56;13.20;99.90
28010;DHT22;15334;49.494;8.410;2023-05-16T06:44:24;13.30;99.90
28010;DHT22;15334;49.494;8.410;2023-05-16T06:46:52;13.20;99.90
28010;DHT22;15334;49.494;8.410;2023-05-16T06:49:21;13.20;99.90
28010;DHT22;15334;49.494;8.410;2023-05-16T06:51:51;13.30;99.90
28010;DHT22;15334;49.494;8.410;2023-05-16T06:54:19;13.30;99.90
28010;DHT22;15334;49.494;8.410;2023-05-16T06:56:47;13.40;99.90
28010;DHT22;15334;49.494;8.410;2023-05-16T06:59:15;13.50;99.90
28010;DHT22;15334;49.494;8.410;2023-05-16T07:01:43;13.50;99.90
28010;DHT22;15334;49.494;8.410;2023-05-16T07:04:12;13.70;99.90
28010;DHT22;15334;49.494;8.410;2023-05-16T07:06:41;13.70;99.90
28010;DHT22;15334;49.494;8.410;2023-05-16T07:09:10;13.90;99.90
28010;DHT22;15334;49.494;8.410;2023-05-16T07:11:38;13.90;99.90
28010;DHT22;15334;49.494;8.410;2023-05-16T07:14:06;13.90;99.90
28010;DHT22;15334;49.494;8.410;2023-05-16T07:16:35;13.80;99.90
28010;DHT22;15334;49.494;8.410;2023-05-16T07:19:03;13.80;99.90
28010;DHT22;15334;49.494;8.410;2023-05-16T07:21:31;13.90;99.90
28010;DHT22;15334;49.494;8.410;2023-05-16T07:23:59;13.90;99.90
28010;DHT22;15334;49.494;8.410;2023-05-16T07:26:29;13.90;99.90
28010;DHT22;15334;49.494;8.410;2023-05-16T07:28:57;13.60;99.90
28010;DHT22;15334;49.494;8.410;2023-05-16T07:31:25;13.50;99.90
28010;DHT22;15334;49.494;8.410;2023-05-16T07:33:53;13.40;99.90
28010;DHT22;15334;49.494;8.410;2023-05-16T07:36:21;13.40;99.90
28010;DHT22;15334;49.494;8.410;2023-05-16T07:38:53;13.30;99.90
28010;DHT22;15334;49.494;8.410;2023-05-16T07:41:50;13.30;99.90
28010;DHT22;15334;49.494;8.410;2023-05-16T07:44:42;13.20;99.90
28010;DHT22;15334;49.494;8.410;2023-05-16T07:47:16;13.20;99.90
28010;DHT22;15334;49.494;8.410;2023-05-16T07:50:02;13.10;99.90
28010;DHT22;15334;49.494;8.410;2023-05-16T07:52:36;13.10;99.90
28010;DHT22;15334;49.494;8.410;2023-05-16T07:55:19;13.00;99.90
28010;DHT22;15334;49.494;8.410;2023-05-16T07:57:52;12.90;99.90
28010;DHT22;15334;49.494;8.410;2023-05-16T08:00:20;12.90;99.90
28010;DHT22;15334;49.494;8.410;2023-05-16T08:02:48;12.80;99.90
28010;DHT22;15334;49.494;8.410;2023-05-16T08:05:16;12.80;99.90
28010;DHT22;15334;49.494;8.410;2023-05-16T08:07:44;12.70;99.90
28010;DHT22;15334;49.494;8.410;2023-05-16T08:10:12;12.50;99.90
28010;DHT22;15334;49.494;8.410;2023-05-16T08:12:40;12.40;99.90
28010;DHT22;15334;49.494;8.410;2023-05-16T08:15:10;12.40;99.90
28010;DHT22;15334;49.494;8.410;2023-05-16T08:17:38;12.40;99.90
28010;DHT22;15334;49.494;8.410;2023-05-16T08:20:07;12.40;99.90
28010;DHT22;15334;49.494;8.410;2023-05-16T08:22:36;12.40;99.90
28010;DHT22;15334;49.494;8.410;2023-05-16T08:25:04;12.40;99.90
28010;DHT22;15334;49.494;8.410;2023-05-16T08:27:35;12.30;99.90
28010;DHT22;15334;49.494;8.410;2023-05-16T08:30:04;12.40;99.90
28010;DHT22;15334;49.494;8.410;2023-05-16T08:32:33;12.40;99.90
28010;DHT22;15334;49.494;8.410;2023-05-16T08:35:01;12.40;99.90
28010;DHT22;15334;49.494;8.410;2023-05-16T08:37:29;12.40;99.90
28010;DHT22;15334;49.494;8.410;2023-05-16T08:39:57;12.40;99.90
28010;DHT22;15334;49.494;8.410;2023-05-16T08:42:26;12.30;99.90
28010;DHT22;15334;49.494;8.410;2023-05-16T08:44:54;12.30;99.90
28010;DHT22;15334;49.494;8.410;2023-05-16T08:47:23;12.30;99.90
28010;DHT22;15334;49.494;8.410;2023-05-16T08:49:56;12.30;99.90
28010;DHT22;15334;49.494;8.410;2023-05-16T08:52:26;12.40;99.90
28010;DHT22;15334;49.494;8.410;2023-05-16T08:54:56;12.40;99.90
28010;DHT22;15334;49.494;8.410;2023-05-16T08:57:37;12.60;99.90
28010;DHT22;15334;49.494;8.410;2023-05-16T09:00:07;12.70;99.90
28010;DHT22;15334;49.494;8.410;2023-05-16T09:02:38;12.90;99.90
28010;DHT22;15334;49.494;8.410;2023-05-16T09:05:11;13.00;99.90
28010;DHT22;15334;49.494;8.410;2023-05-16T09:07:39;12.90;99.90
28010;DHT22;15334;49.494;8.410;2023-05-16T09:10:08;13.10;99.90
28010;DHT22;15334;49.494;8.410;2023-05-16T09:12:37;13.40;99.90
28010;DHT22;15334;49.494;8.410;2023-05-16T09:15:07;13.60;99.90
28010;DHT22;15334;49.494;8.410;2023-05-16T09:17:38;13.90;99.90
28010;DHT22;15334;49.494;8.410;2023-05-16T09:20:12;13.80;99.90
28010;DHT22;15334;49.494;8.410;2023-05-16T09:22:49;13.80;99.90
28010;DHT22;15334;49.494;8.410;2023-05-16T09:25:19;13.80;99.90
28010;DHT22;15334;49.494;8.410;2023-05-16T09:27:58;13.60;99.90
28010;DHT22;15334;49.494;8.410;2023-05-16T09:30:28;13.30;99.90
28010;DHT22;15334;49.494;8.410;2023-05-16T09:32:57;13.20;99.90
28010;DHT22;15334;49.494;8.410;2023-05-16T09:35:27;13.10;99.90
28010;DHT22;15334;49.494;8.410;2023-05-16T09:38:13;13.00;99.90
28010;DHT22;15334;49.494;8.410;2023-05-16T09:40:43;12.80;99.90
28010;DHT22;15334;49.494;8.410;2023-05-16T09:43:14;12.70;99.90
28010;DHT22;15334;49.494;8.410;2023-05-16T09:45:47;12.70;99.90
28010;DHT22;15334;49.494;8.410;2023-05-16T09:48:19;12.50;99.90
28010;DHT22;15334;49.494;8.410;2023-05-16T09:50:52;12.50;99.90
28010;DHT22;15334;49.494;8.410;2023-05-16T09:53:26;12.50;99.90
28010;DHT22;15334;49.494;8.410;2023-05-16T09:56:02;12.60;99.90
28010;DHT22;15334;49.494;8.410;2023-05-16T09:58:31;12.60;99.90
28010;DHT22;15334;49.494;8.410;2023-05-16T10:01:07;12.70;99.90
28010;DHT22;15334;49.494;8.410;2023-05-16T10:03:36;12.80;99.90
28010;DHT22;15334;49.494;8.410;2023-05-16T10:06:09;12.90;99.90
28010;DHT22;15334;49.494;8.410;2023-05-16T10:08:41;13.00;99.90
28010;DHT22;15334;49.494;8.410;2023-05-16T10:11:10;13.10;99.90
28010;DHT22;15334;49.494;8.410;2023-05-16T10:13:39;13.10;99.90
28010;DHT22;15334;49.494;8.410;2023-05-16T10:16:10;13.10;99.90
28010;DHT22;15334;49.494;8.410;2023-05-16T10:18:39;12.80;99.90
28010;DHT22;15334;49.494;8.410;2023-05-16T10:21:13;12.70;99.90
28010;DHT22;15334;49.494;8.410;2023-05-16T10:23:42;12.60;99.90
28010;DHT22;15334;49.494;8.410;2023-05-16T10:26:11;12.50;99.90
28010;DHT22;15334;49.494;8.410;2023-05-16T10:28:40;12.50;99.90
28010;DHT22;15334;49.494;8.410;2023-05-16T10:31:09;12.60;99.90
28010;DHT22;15334;49.494;8.410;2023-05-16T10:33:38;12.50;99.90
28010;DHT22;15334;49.494;8.410;2023-05-16T10:36:09;12.50;99.90
28010;DHT22;15334;49.494;8.410;2023-05-16T10:38:38;12.50;99.90
28010;DHT22;15334;49.494;8.410;2023-05-16T10:41:08;12.60;99.90
28010;DHT22;15334;49.494;8.410;2023-05-16T10:43:36;12.70;99.90
28010;DHT22;15334;49.494;8.410;2023-05-16T10:46:07;12.70;99.90
28010;DHT22;15334;49.494;8.410;2023-05-16T10:48:37;12.80;99.90
28010;DHT22;15334;49.494;8.410;2023-05-16T10:54:04;12.80;99.90
28010;DHT22;15334;49.494;8.410;2023-05-16T10:56:33;12.70;99.90
28010;DHT22;15334;49.494;8.410;2023-05-16T10:59:02;12.70;99.90
28010;DHT22;15334;49.494;8.410;2023-05-16T11:01:32;12.70;99.90
28010;DHT22;15334;49.494;8.410;2023-05-16T11:04:15;12.80;99.90
28010;DHT22;15334;49.494;8.410;2023-05-16T11:06:46;12.80;99.90
28010;DHT22;15334;49.494;8.410;2023-05-16T11:09:25;12.80;99.90
28010;DHT22;15334;49.494;8.410;2023-05-16T11:12:01;12.70;99.90
28010;DHT22;15334;49.494;8.410;2023-05-16T11:14:36;12.70;99.90
28010;DHT22;15334;49.494;8.410;2023-05-16T11:17:07;12.50;99.90
28010;DHT22;15334;49.494;8.410;2023-05-16T11:19:40;12.50;99.90
28010;DHT22;15334;49.494;8.410;2023-05-16T11:22:23;12.50;99.90
28010;DHT22;15334;49.494;8.410;2023-05-16T11:24:56;12.50;99.90
28010;DHT22;15334;49.494;8.410;2023-05-16T11:27:25;12.50;99.90
28010;DHT22;15334;49.494;8.410;2023-05-16T11:29:57;12.50;99.90
28010;DHT22;15334;49.494;8.410;2023-05-16T11:32:29;12.50;99.90
28010;DHT22;15334;49.494;8.410;2023-05-16T11:34:58;12.40;99.90
28010;DHT22;15334;49.494;8.410;2023-05-16T11:37:26;12.40;99.90
28010;DHT22;15334;49.494;8.410;2023-05-16T11:39:59;12.40;99.90
28010;DHT22;15334;49.494;8.410;2023-05-16T11:42:29;12.50;99.90
28010;DHT22;15334;49.494;8.410;2023-05-16T11:45:06;12.40;99.90
28010;DHT22;15334;49.494;8.410;2023-05-16T11:47:36;12.50;99.90
28010;DHT22;15334;49.494;8.410;2023-05-16T11:50:05;12.50;99.90
28010;DHT22;15334;49.494;8.410;2023-05-16T11:52:36;12.60;99.90
28010;DHT22;15334;49.494;8.410;2023-05-16T11:55:07;12.50;99.90
28010;DHT22;15334;49.494;8.410;2023-05-16T11:57:37;12.30;99.90
28010;DHT22;15334;49.494;8.410;2023-05-16T12:00:14;12.30;99.90
28010;DHT22;15334;49.494;8.410;2023-05-16T12:02:43;12.30;99.90
28010;DHT22;15334;49.494;8.410;2023-05-16T12:05:14;12.30;99.90
28010;DHT22;15334;49.494;8.410;2023-05-16T12:07:43;12.50;99.90
28010;DHT22;15334;49.494;8.410;2023-05-16T12:10:14;12.60;99.90
28010;DHT22;15334;49.494;8.410;2023-05-16T12:12:45;12.70;99.90
28010;DHT22;15334;49.494;8.410;2023-05-16T12:15:14;12.60;99.90
28010;DHT22;15334;49.494;8.410;2023-05-16T12:17:43;12.60;99.90
28010;DHT22;15334;49.494;8.410;2023-05-16T12:20:15;12.80;99.90
28010;DHT22;15334;49.494;8.410;2023-05-16T12:22:45;12.80;99.90
28010;DHT22;15334;49.494;8.410;2023-05-16T12:25:25;12.90;99.90
28010;DHT22;15334;49.494;8.410;2023-05-16T12:27:56;13.00;99.90
28010;DHT22;15334;49.494;8.410;2023-05-16T12:30:25;13.00;99.90
28010;DHT22;15334;49.494;8.410;2023-05-16T12:32:55;13.40;99.90
28010;DHT22;15334;49.494;8.410;2023-05-16T12:35:24;13.60;99.90
28010;DHT22;15334;49.494;8.410;2023-05-16T12:37:53;13.60;99.90
28010;DHT22;15334;49.494;8.410;2023-05-16T12:40:22;13.70;99.90
28010;DHT22;15334;49.494;8.410;2023-05-16T12:42:54;13.80;99.90
28010;DHT22;15334;49.494;8.410;2023-05-16T12:45:23;14.10;99.90
28010;DHT22;15334;49.494;8.410;2023-05-16T12:47:51;14.30;99.90
28010;DHT22;15334;49.494;8.410;2023-05-16T12:50:20;14.40;99.90
28010;DHT22;15334;49.494;8.410;2023-05-16T12:52:49;14.20;99.90
28010;DHT22;15334;49.494;8.410;2023-05-16T12:55:19;14.10;99.90
28010;DHT22;15334;49.494;8.410;2023-05-16T12:57:48;14.10;99.90
28010;DHT22;15334;49.494;8.410;2023-05-16T13:00:19;13.90;99.90
28010;DHT22;15334;49.494;8.410;2023-05-16T13:02:47;13.80;99.90
28010;DHT22;15334;49.494;8.410;2023-05-16T13:05:16;13.90;99.90
28010;DHT22;15334;49.494;8.410;2023-05-16T13:07:44;14.00;99.90
28010;DHT22;15334;49.494;8.410;2023-05-16T13:10:12;14.00;99.90
28010;DHT22;15334;49.494;8.410;2023-05-16T13:12:40;14.00;99.90
28010;DHT22;15334;49.494;8.410;2023-05-16T13:15:10;14.20;99.90
28010;DHT22;15334;49.494;8.410;2023-05-16T13:17:41;14.40;99.90
28010;DHT22;15334;49.494;8.410;2023-05-16T13:20:10;14.50;99.90
28010;DHT22;15334;49.494;8.410;2023-05-16T13:22:41;14.70;99.90
28010;DHT22;15334;49.494;8.410;2023-05-16T13:25:10;14.50;99.90
28010;DHT22;15334;49.494;8.410;2023-05-16T13:27:38;14.60;99.90
28010;DHT22;15334;49.494;8.410;2023-05-16T13:30:08;14.60;99.90
28010;DHT22;15334;49.494;8.410;2023-05-16T13:32:37;14.70;99.90
28010;DHT22;15334;49.494;8.410;2023-05-16T13:35:07;14.80;99.90
28010;DHT22;15334;49.494;8.410;2023-05-16T13:37:36;15.00;99.90
28010;DHT22;15334;49.494;8.410;2023-05-16T13:40:06;15.10;99.90
28010;DHT22;15334;49.494;8.410;2023-05-16T13:42:36;15.20;99.90
28010;DHT22;15334;49.494;8.410;2023-05-16T13:45:05;15.30;99.90
28010;DHT22;15334;49.494;8.410;2023-05-16T13:47:34;15.50;99.90
28010;DHT22;15334;49.494;8.410;2023-05-16T13:50:04;15.70;99.90
28010;DHT22;15334;49.494;8.410;2023-05-16T13:52:37;16.00;99.90
28010;DHT22;15334;49.494;8.410;2023-05-16T13:55:06;16.20;99.90
28010;DHT22;15334;49.494;8.410;2023-05-16T13:57:35;16.60;99.90
28010;DHT22;15334;49.494;8.410;2023-05-16T14:00:04;17.00;99.90
28010;DHT22;15334;49.494;8.410;2023-05-16T14:02:57;17.50;99.90
28010;DHT22;15334;49.494;8.410;2023-05-16T14:05:26;18.00;99.90
28010;DHT22;15334;49.494;8.410;2023-05-16T14:08:02;18.50;98.80
28010;DHT22;15334;49.494;8.410;2023-05-16T14:10:30;18.70;97.30
28010;DHT22;15334;49.494;8.410;2023-05-16T14:12:58;19.00;96.00
28010;DHT22;15334;49.494;8.410;2023-05-16T14:15:26;19.20;95.20
28010;DHT22;15334;49.494;8.410;2023-05-16T14:17:55;19.20;95.10
28010;DHT22;15334;49.494;8.410;2023-05-16T14:20:23;18.90;94.30
28010;DHT22;15334;49.494;8.410;2023-05-16T14:22:51;18.70;94.70
28010;DHT22;15334;49.494;8.410;2023-05-16T14:25:24;18.60;94.80
28010;DHT22;15334;49.494;8.410;2023-05-16T14:28:13;18.30;94.50
28010;DHT22;15334;49.494;8.410;2023-05-16T14:30:44;18.00;95.10
28010;DHT22;15334;49.494;8.410;2023-05-16T14:33:14;18.00;95.50
28010;DHT22;15334;49.494;8.410;2023-05-16T14:35:47;17.90;94.70
28010;DHT22;15334;49.494;8.410;2023-05-16T14:38:16;17.60;93.40
28010;DHT22;15334;49.494;8.410;2023-05-16T14:41:07;17.30;93.80
28010;DHT22;15334;49.494;8.410;2023-05-16T14:44:32;17.10;93.20
28010;DHT22;15334;49.494;8.410;2023-05-16T14:47:35;17.00;93.60
28010;DHT22;15334;49.494;8.410;2023-05-16T14:50:04;17.20;94.00
28010;DHT22;15334;49.494;8.410;2023-05-16T14:52:32;17.40;94.80
28010;DHT22;15334;49.494;8.410;2023-05-16T14:55:00;17.60;94.20
28010;DHT22;15334;49.494;8.410;2023-05-16T14:57:30;17.40;93.20
28010;DHT22;15334;49.494;8.410;2023-05-16T15:00:00;17.30;93.00
28010;DHT22;15334;49.494;8.410;2023-05-16T15:02:30;17.00;92.30
28010;DHT22;15334;49.494;8.410;2023-05-16T15:04:58;16.90;92.40
28010;DHT22;15334;49.494;8.410;2023-05-16T15:07:26;16.70;92.90
28010;DHT22;15334;49.494;8.410;2023-05-16T15:09:54;16.80;93.60
28010;DHT22;15334;49.494;8.410;2023-05-16T15:12:22;16.80;92.60
28010;DHT22;15334;49.494;8.410;2023-05-16T15:14:54;16.80;92.20
28010;DHT22;15334;49.494;8.410;2023-05-16T15:17:22;16.80;91.90
28010;DHT22;15334;49.494;8.410;2023-05-16T15:19:50;16.80;92.20
28010;DHT22;15334;49.494;8.410;2023-05-16T15:22:19;16.80;92.20
28010;DHT22;15334;49.494;8.410;2023-05-16T15:24:48;16.80;92.20
28010;DHT22;15334;49.494;8.410;2023-05-16T15:27:16;16.90;91.30
28010;DHT22;15334;49.494;8.410;2023-05-16T15:29:44;16.90;90.70
28010;DHT22;15334;49.494;8.410;2023-05-16T15:32:13;16.90;90.60
28010;DHT22;15334;49.494;8.410;2023-05-16T15:34:44;16.80;90.40
28010;DHT22;15334;49.494;8.410;2023-05-16T15:37:12;16.70;90.40
28010;DHT22;15334;49.494;8.410;2023-05-16T15:39:40;16.50;91.10
28010;DHT22;15334;49.494;8.410;2023-05-16T15:42:09;16.50;91.10
28010;DHT22;15334;49.494;8.410;2023-05-16T15:44:38;16.60;90.60
28010;DHT22;15334;49.494;8.410;2023-05-16T15:47:06;16.70;90.90
28010;DHT22;15334;49.494;8.410;2023-05-16T15:49:36;16.80;91.00
28010;DHT22;15334;49.494;8.410;2023-05-16T15:52:04;16.70;90.20